Time;durP1;ratioP1;P1;durP2;ratioP2;P2;SDS_P1;SDS_P2;PMS_P1;PMS_P2;Temp;Humidity;BMP_temperature;BMP_pressure;BME280_temperature;BME280_humidity;BME280_pressure;Samples;Min_cycle;Max_cycle;Signal;HPM_P1;HPM_P2
2022/05/05 00:00:18;;;;;;;;;;;;;;;;;;1035344;28;3847;-50
2022/05/05 00:01:07;;;;;;;;;;;;;;;;;;1035709;28;3013;-51
2022/05/05 00:01:37;;;;;;;;;;;;;;;;;;1034012;28;3949;-52
2022/05/05 00:02:08;;;;;;;;;;;;;;;;;;1039062;28;1614;-50
2022/05/05 00:02:38;;;;;;;;;;;;;;;;;;1040839;28;3773;-49
2022/05/05 00:03:08;;;;;;;;;;;;;;;;;;1040877;28;2124;-50
2022/05/05 00:03:39;;;;;;;;;;;;;;;;;;1036175;28;3666;-50
2022/05/05 00:04:09;;;;;;;;;;;;;;;;;;1035836;28;4242;-49
2022/05/05 00:04:39;;;;;;;;;;;;;;;;;;1038168;28;3528;-47
2022/05/05 00:05:17;;;;;;;;;;;;;;;;;;1041056;28;4354;-48
2022/05/05 00:05:48;;;;;;;;;;;;;;;;;;1040355;28;3669;-48
2022/05/05 00:06:18;;;;;;;;;;;;;;;;;;1041391;28;4176;-51
2022/05/05 00:06:48;;;;;;;;;;;;;;;;;;1044908;28;3833;-50
2022/05/05 00:07:19;;;;;;;;;;;;;;;;;;1042925;28;3904;-51
2022/05/05 00:07:49;;;;;;;;;;;;;;;;;;1040878;28;3284;-48
2022/05/05 00:08:19;;;;;;;;;;;;;;;;;;1038706;28;4266;-49
2022/05/05 00:08:56;;;;;;;;;;;;;;;;;;1037990;28;3258;-53
2022/05/05 00:09:26;;;;;;;;;;;;;;;;;;1038309;28;4821;-48
2022/05/05 00:14:28;;;;;;;;;;;;;;;;;;1040079;28;4051;-48
2022/05/05 00:14:58;;;;;;;;;;;;;;;;;;1040677;28;3005;-50
2022/05/05 00:15:28;;;;;;;;;;;;;;;;;;1036140;28;4085;-49
2022/05/05 00:15:58;;;;;;;;;;;;;;;;;;1037546;28;2165;-47
2022/05/05 00:16:29;;;;;;;;;;;;;;;;;;1036348;28;3981;-50
2022/05/05 00:17:03;;;;;;;;;;;;;;;;;;1040046;28;3184;-48
2022/05/05 00:17:34;;;;;;;;;;;;;;;;;;1040835;28;3789;-52
2022/05/05 00:18:04;;;;;;;;;;;;;;;;;;1041207;28;2242;-49
2022/05/05 00:18:34;;;;;;;;;;;;;;;;;;1041496;28;3909;-49
2022/05/05 00:19:05;;;;;;;;;;;;;;;;;;1039971;28;3869;-50
2022/05/05 00:19:36;;;;;;;;;;;;;;;;;;1038352;28;3954;-51
2022/05/05 00:20:13;;;;;;;;;;;;;;;;;;1039007;28;3933;-47
2022/05/05 00:20:44;;;;;;;;;;;;;;;;;;1040812;28;2244;-50
2022/05/05 00:21:15;;;;;;;;;;;;;;;;;;1038910;28;4393;-49
2022/05/05 00:21:45;;;;;;;;;;;;;;;;;;1041283;28;2628;-51
2022/05/05 00:22:15;;;;;;;;;;;;;;;;;;1039624;28;4000;-48
2022/05/05 00:22:46;;;;;;;;;;;;;;;;;;1039159;28;2564;-51
2022/05/05 00:23:16;;;;;;;;;;;;;;;;;;1038988;28;4037;-47
2022/05/05 00:23:46;;;;;;;;;;;;;;;;;;1040184;28;2804;-50
2022/05/05 00:24:16;;;;;;;;;;;;;;;;;;1039092;28;4058;-49
2022/05/05 00:24:47;;;;;;;;;;;;;;;;;;1039687;28;3168;-48
2022/05/05 00:25:18;;;;;;;;;;;;;;;;;;1039168;28;4108;-51
2022/05/05 00:25:48;;;;;;;;;;;;;;;;;;1040701;28;2400;-49
2022/05/05 00:26:18;;;;;;;;;;;;;;;;;;1040505;28;4259;-51
2022/05/05 00:26:48;;;;;;;;;;;;;;;;;;1040124;28;3877;-47
2022/05/05 00:27:19;;;;;;;;;;;;;;;;;;1038668;28;3966;-53
2022/05/05 00:27:49;;;;;;;;;;;;;;;;;;1041334;28;2929;-52
2022/05/05 00:28:19;;;;;;;;;;;;;;;;;;1040452;28;3921;-50
2022/05/05 00:28:50;;;;;;;;;;;;;;;;;;1035417;28;4020;-52
2022/05/05 00:29:21;;;;;;;;;;;;;;;;;;1035860;28;3831;-49
2022/05/05 00:29:51;;;;;;;;;;;;;;;;;;1035458;28;3069;-52
2022/05/05 00:30:21;;;;;;;;;;;;;;;;;;1035502;28;4076;-47
2022/05/05 00:30:51;;;;;;;;;;;;;;;;;;1040822;28;2454;-48
2022/05/05 00:31:22;;;;;;;;;;;;;;;;;;1039030;28;3837;-49
2022/05/05 00:31:52;;;;;;;;;;;;;;;;;;1044354;28;3067;-49
2022/05/05 00:32:22;;;;;;;;;;;;;;;;;;1044729;28;3884;-48
2022/05/05 00:32:52;;;;;;;;;;;;;;;;;;1044367;28;3968;-47
2022/05/05 00:33:23;;;;;;;;;;;;;;;;;;1040783;28;4454;-50
2022/05/05 00:33:53;;;;;;;;;;;;;;;;;;1040055;28;2507;-53
2022/05/05 00:34:23;;;;;;;;;;;;;;;;;;1038691;28;4364;-49
2022/05/05 00:34:53;;;;;;;;;;;;;;;;;;1040830;28;3326;-48
2022/05/05 00:35:24;;;;;;;;;;;;;;;;;;1037660;28;4546;-49
2022/05/05 00:35:54;;;;;;;;;;;;;;;;;;1035866;28;3981;-51
2022/05/05 00:36:24;;;;;;;;;;;;;;;;;;1038878;28;3916;-48
2022/05/05 00:36:54;;;;;;;;;;;;;;;;;;1039410;28;3899;-47
2022/05/05 00:37:25;;;;;;;;;;;;;;;;;;1039092;28;3835;-47
2022/05/05 00:37:55;;;;;;;;;;;;;;;;;;1039657;28;3011;-49
2022/05/05 00:38:25;;;;;;;;;;;;;;;;;;1037456;28;4014;-50
2022/05/05 00:38:56;;;;;;;;;;;;;;;;;;1040341;28;3609;-48
2022/05/05 00:39:26;;;;;;;;;;;;;;;;;;1041346;28;4095;-51
2022/05/05 00:39:56;;;;;;;;;;;;;;;;;;1038549;28;2829;-50
2022/05/05 00:40:26;;;;;;;;;;;;;;;;;;1039251;28;3827;-50
2022/05/05 00:40:57;;;;;;;;;;;;;;;;;;1040962;28;1715;-48
2022/05/05 00:41:31;;;;;;;;;;;;;;;;;;1040590;28;4354;-47
2022/05/05 00:42:01;;;;;;;;;;;;;;;;;;1040100;28;3040;-49
2022/05/05 00:42:31;;;;;;;;;;;;;;;;;;1041714;28;4034;-51
2022/05/05 00:43:02;;;;;;;;;;;;;;;;;;1040938;28;2610;-47
2022/05/05 00:43:33;;;;;;;;;;;;;;;;;;1040865;28;4050;-47
2022/05/05 00:44:04;;;;;;;;;;;;;;;;;;1038494;28;4125;-51
2022/05/05 00:44:34;;;;;;;;;;;;;;;;;;1041125;28;3772;-47
2022/05/05 00:45:05;;;;;;;;;;;;;;;;;;1036014;28;3365;-52
2022/05/05 00:45:35;;;;;;;;;;;;;;;;;;1035470;28;4293;-49
2022/05/05 00:46:05;;;;;;;;;;;;;;;;;;1036783;28;3587;-46
2022/05/05 00:46:35;;;;;;;;;;;;;;;;;;1039364;28;3960;-46
2022/05/05 00:47:06;;;;;;;;;;;;;;;;;;1039443;28;3976;-49
2022/05/05 00:47:37;;;;;;;;;;;;;;;;;;1039433;28;3952;-50
2022/05/05 00:48:08;;;;;;;;;;;;;;;;;;1037897;28;3964;-48
2022/05/05 00:48:38;;;;;;;;;;;;;;;;;;1038987;28;3780;-50
2022/05/05 00:49:08;;;;;;;;;;;;;;;;;;1040463;28;3821;-51
2022/05/05 00:49:39;;;;;;;;;;;;;;;;;;1040621;28;3409;-48
2022/05/05 00:50:10;;;;;;;;;;;;;;;;;;1040943;28;4047;-48
2022/05/05 00:50:41;;;;;;;;;;;;;;;;;;1040973;28;1644;-49
2022/05/05 00:51:11;;;;;;;;;;;;;;;;;;1039552;28;3878;-49
2022/05/05 00:51:41;;;;;;;;;;;;;;;;;;1039449;28;2253;-51
2022/05/05 00:52:12;;;;;;;;;;;;;;;;;;1038427;28;4199;-50
2022/05/05 00:52:42;;;;;;;;;;;;;;;;;;1041569;28;3093;-49
2022/05/05 00:53:12;;;;;;;;;;;;;;;;;;1040004;28;3827;-50
2022/05/05 00:53:42;;;;;;;;;;;;;;;;;;1038150;28;3145;-50
2022/05/05 00:54:13;;;;;;;;;;;;;;;;;;1040383;28;5294;-52
2022/05/05 00:54:43;;;;;;;;;;;;;;;;;;1041810;28;1591;-49
2022/05/05 00:55:13;;;;;;;;;;;;;;;;;;1039749;28;4095;-51
2022/05/05 00:55:44;;;;;;;;;;;;;;;;;;1039860;28;3540;-49
2022/05/05 00:56:14;;;;;;;;;;;;;;;;;;1041760;28;4507;-50
2022/05/05 00:56:45;;;;;;;;;;;;;;;;;;1043623;28;2869;-49
2022/05/05 00:57:15;;;;;;;;;;;;;;;;;;1043046;28;4056;-47
2022/05/05 00:57:45;;;;;;;;;;;;;;;;;;1040466;28;3119;-52
2022/05/05 00:58:16;;;;;;;;;;;;;;;;;;1038159;28;3843;-48
2022/05/05 00:58:47;;;;;;;;;;;;;;;;;;1038036;28;3453;-50
2022/05/05 00:59:17;;;;;;;;;;;;;;;;;;1040711;28;4310;-50
2022/05/05 00:59:48;;;;;;;;;;;;;;;;;;1041324;28;1817;-50
2022/05/05 01:00:19;;;;;;;;;;;;;;;;;;1040069;28;4280;-48
2022/05/05 01:00:50;;;;;;;;;;;;;;;;;;1039796;28;3169;-49
2022/05/05 01:01:21;;;;;;;;;;;;;;;;;;1040856;28;3990;-47
2022/05/05 01:01:51;;;;;;;;;;;;;;;;;;1038277;28;5052;-50
2022/05/05 01:02:21;;;;;;;;;;;;;;;;;;1040396;28;4057;-49
2022/05/05 01:02:53;;;;;;;;;;;;;;;;;;1039735;28;2984;-48
2022/05/05 01:03:23;;;;;;;;;;;;;;;;;;1039244;28;3816;-53
2022/05/05 01:03:54;;;;;;;;;;;;;;;;;;1039211;28;3901;-49
2022/05/05 01:04:25;;;;;;;;;;;;;;;;;;1039183;28;4651;-49
2022/05/05 01:04:56;;;;;;;;;;;;;;;;;;1040693;28;2847;-49
2022/05/05 01:05:29;;;;;;;;;;;;;;;;;;1041237;28;3955;-55
2022/05/05 01:06:00;;;;;;;;;;;;;;;;;;1040548;28;2971;-51
2022/05/05 01:06:30;;;;;;;;;;;;;;;;;;1041026;28;4359;-50
2022/05/05 01:07:00;;;;;;;;;;;;;;;;;;1039775;28;3849;-49
2022/05/05 01:07:31;;;;;;;;;;;;;;;;;;1039211;28;4263;-50
2022/05/05 01:08:02;;;;;;;;;;;;;;;;;;1039617;28;3674;-49
2022/05/05 01:08:32;;;;;;;;;;;;;;;;;;1039162;28;4042;-49
2022/05/05 01:09:03;;;;;;;;;;;;;;;;;;1040002;28;2316;-48
2022/05/05 01:09:46;;;;;;;;;;;;;;;;;;1041312;28;4045;-51
2022/05/05 01:10:27;;;;;;;;;;;;;;;;;;1047905;28;4309;-49
2022/05/05 01:10:57;;;;;;;;;;;;;;;;;;1047552;28;2286;-52
2022/05/05 01:11:29;;;;;;;;;;;;;;;;;;1048060;28;4443;-51
2022/05/05 01:12:00;;;;;;;;;;;;;;;;;;1045449;28;5142;-50
2022/05/05 01:12:31;;;;;;;;;;;;;;;;;;1046084;28;3980;-48
2022/05/05 01:13:02;;;;;;;;;;;;;;;;;;1047923;28;3976;-47
2022/05/05 01:13:32;;;;;;;;;;;;;;;;;;1047085;28;3844;-48
2022/05/05 01:14:03;;;;;;;;;;;;;;;;;;1048693;28;3225;-52
2022/05/05 01:14:33;;;;;;;;;;;;;;;;;;1046703;28;4006;-51
2022/05/05 01:15:11;;;;;;;;;;;;;;;;;;1048974;28;4455;-51
2022/05/05 01:15:41;;;;;;;;;;;;;;;;;;1047247;28;5257;-49
2022/05/05 01:16:12;;;;;;;;;;;;;;;;;;1047942;28;3896;-50
2022/05/05 01:16:43;;;;;;;;;;;;;;;;;;1048609;28;2611;-47
2022/05/05 01:17:13;;;;;;;;;;;;;;;;;;1048849;28;3809;-52
2022/05/05 01:17:43;;;;;;;;;;;;;;;;;;1042755;28;3097;-50
2022/05/05 01:18:14;;;;;;;;;;;;;;;;;;1042849;28;4210;-51
2022/05/05 01:18:45;;;;;;;;;;;;;;;;;;1045391;28;3706;-50
2022/05/05 01:19:15;;;;;;;;;;;;;;;;;;1042769;28;4295;-49
2022/05/05 01:19:45;;;;;;;;;;;;;;;;;;1047476;28;3701;-48
2022/05/05 01:20:19;;;;;;;;;;;;;;;;;;1048488;28;3830;-48
2022/05/05 01:20:50;;;;;;;;;;;;;;;;;;1043860;28;4013;-50
2022/05/05 01:21:20;;;;;;;;;;;;;;;;;;1039950;28;3819;-47
2022/05/05 01:21:54;;;;;;;;;;;;;;;;;;1040626;28;3076;-47
2022/05/05 01:22:26;;;;;;;;;;;;;;;;;;1041099;28;3989;-48
2022/05/05 01:22:56;;;;;;;;;;;;;;;;;;1045183;28;2299;-48
2022/05/05 01:23:26;;;;;;;;;;;;;;;;;;1047013;28;3805;-48
2022/05/05 01:23:56;;;;;;;;;;;;;;;;;;1041631;28;3918;-48
2022/05/05 01:28:34;;;;;;;;;;;;;;;;;;1046934;28;3912;-50
2022/05/05 01:29:05;;;;;;;;;;;;;;;;;;1047677;28;3989;-49
2022/05/05 01:29:35;;;;;;;;;;;;;;;;;;1043515;28;3831;-48
2022/05/05 01:30:06;;;;;;;;;;;;;;;;;;1045006;28;2314;-50
2022/05/05 01:30:43;;;;;;;;;;;;;;;;;;1044139;28;3885;-49
2022/05/05 01:31:14;;;;;;;;;;;;;;;;;;1043088;28;4070;-48
2022/05/05 01:31:44;;;;;;;;;;;;;;;;;;1046384;28;2053;-47
2022/05/05 01:32:14;;;;;;;;;;;;;;;;;;1044636;28;4081;-49
2022/05/05 01:32:45;;;;;;;;;;;;;;;;;;1045339;28;4052;-47
2022/05/05 01:33:15;;;;;;;;;;;;;;;;;;1046879;28;4619;-52
2022/05/05 01:33:45;;;;;;;;;;;;;;;;;;1049068;28;3118;-53
2022/05/05 01:34:16;;;;;;;;;;;;;;;;;;1046039;28;3971;-50
2022/05/05 01:34:47;;;;;;;;;;;;;;;;;;1048648;28;3091;-49
2022/05/05 01:35:17;;;;;;;;;;;;;;;;;;1045642;28;4013;-53
2022/05/05 01:35:49;;;;;;;;;;;;;;;;;;1050048;28;2425;-48
2022/05/05 01:36:19;;;;;;;;;;;;;;;;;;1048508;28;3906;-51
2022/05/05 01:36:49;;;;;;;;;;;;;;;;;;1047909;28;2843;-52
2022/05/05 01:37:20;;;;;;;;;;;;;;;;;;1048619;28;3872;-51
2022/05/05 01:37:50;;;;;;;;;;;;;;;;;;1048517;28;3778;-51
2022/05/05 01:38:22;;;;;;;;;;;;;;;;;;1049646;28;3989;-47
2022/05/05 01:38:52;;;;;;;;;;;;;;;;;;1048137;28;3893;-51
2022/05/05 01:39:23;;;;;;;;;;;;;;;;;;1048650;28;4248;-51
2022/05/05 01:39:54;;;;;;;;;;;;;;;;;;1048725;28;3204;-51
2022/05/05 01:40:24;;;;;;;;;;;;;;;;;;1047052;28;4310;-49
2022/05/05 01:40:54;;;;;;;;;;;;;;;;;;1049311;28;1833;-51
2022/05/05 01:41:24;;;;;;;;;;;;;;;;;;1049304;28;3805;-48
2022/05/05 01:41:55;;;;;;;;;;;;;;;;;;1042015;28;3714;-51
2022/05/05 01:42:25;;;;;;;;;;;;;;;;;;1043543;28;3887;-47
2022/05/05 01:42:55;;;;;;;;;;;;;;;;;;1045331;28;3293;-49
2022/05/05 01:43:25;;;;;;;;;;;;;;;;;;1041997;28;4420;-48
2022/05/05 01:43:55;;;;;;;;;;;;;;;;;;1050119;28;1768;-48
2022/05/05 01:44:26;;;;;;;;;;;;;;;;;;1043507;28;4010;-49
2022/05/05 01:44:56;;;;;;;;;;;;;;;;;;1040446;28;2398;-51
2022/05/05 01:45:26;;;;;;;;;;;;;;;;;;1039953;28;4207;-52
2022/05/05 01:45:57;;;;;;;;;;;;;;;;;;1038858;28;2792;-48
2022/05/05 01:46:27;;;;;;;;;;;;;;;;;;1041952;28;4035;-49
2022/05/05 01:46:57;;;;;;;;;;;;;;;;;;1044326;28;3243;-49
2022/05/05 01:47:28;;;;;;;;;;;;;;;;;;1045377;28;3957;-49
2022/05/05 01:47:58;;;;;;;;;;;;;;;;;;1049101;28;2580;-49
2022/05/05 01:48:29;;;;;;;;;;;;;;;;;;1048256;28;3846;-52
2022/05/05 01:48:59;;;;;;;;;;;;;;;;;;1049461;28;3236;-48
2022/05/05 01:49:29;;;;;;;;;;;;;;;;;;1045679;28;3937;-52
2022/05/05 01:49:59;;;;;;;;;;;;;;;;;;1048540;28;2926;-52
2022/05/05 01:50:32;;;;;;;;;;;;;;;;;;1047580;28;4204;-48
2022/05/05 01:51:03;;;;;;;;;;;;;;;;;;1047144;28;3513;-53
2022/05/05 01:51:34;;;;;;;;;;;;;;;;;;1048288;28;3832;-48
2022/05/05 01:52:08;;;;;;;;;;;;;;;;;;1048223;28;4071;-51
2022/05/05 01:52:39;;;;;;;;;;;;;;;;;;1048307;28;4052;-49
2022/05/05 01:53:09;;;;;;;;;;;;;;;;;;1039540;28;4597;-52
2022/05/05 01:53:39;;;;;;;;;;;;;;;;;;1039047;28;3037;-47
2022/05/05 01:54:09;;;;;;;;;;;;;;;;;;1039261;28;4189;-48
2022/05/05 01:54:40;;;;;;;;;;;;;;;;;;1039413;28;3091;-48
2022/05/05 01:55:16;;;;;;;;;;;;;;;;;;1043497;28;4365;-50
2022/05/05 01:55:47;;;;;;;;;;;;;;;;;;1050074;28;1884;-49
2022/05/05 01:56:17;;;;;;;;;;;;;;;;;;1048865;28;4104;-49
2022/05/05 01:56:47;;;;;;;;;;;;;;;;;;1044124;28;4034;-50
2022/05/05 01:57:18;;;;;;;;;;;;;;;;;;1042964;28;4071;-50
2022/05/05 01:57:48;;;;;;;;;;;;;;;;;;1043640;28;3804;-50
2022/05/05 01:58:19;;;;;;;;;;;;;;;;;;1045301;28;3957;-48
2022/05/05 01:58:49;;;;;;;;;;;;;;;;;;1046537;28;3022;-48
2022/05/05 01:59:19;;;;;;;;;;;;;;;;;;1044635;28;3978;-48
2022/05/05 01:59:49;;;;;;;;;;;;;;;;;;1045802;28;1764;-50
2022/05/05 02:00:20;;;;;;;;;;;;;;;;;;1043285;28;3993;-47
2022/05/05 02:00:50;;;;;;;;;;;;;;;;;;1044165;28;2455;-48
2022/05/05 02:01:20;;;;;;;;;;;;;;;;;;1048219;28;4054;-50
2022/05/05 02:01:51;;;;;;;;;;;;;;;;;;1049275;28;4265;-48
2022/05/05 02:02:21;;;;;;;;;;;;;;;;;;1046063;28;5552;-49
2022/05/05 02:02:51;;;;;;;;;;;;;;;;;;1047033;28;3619;-48
2022/05/05 02:03:21;;;;;;;;;;;;;;;;;;1046152;28;4235;-50
2022/05/05 02:03:52;;;;;;;;;;;;;;;;;;1044338;28;3989;-49
2022/05/05 02:04:22;;;;;;;;;;;;;;;;;;1044823;28;3847;-54
2022/05/05 02:04:52;;;;;;;;;;;;;;;;;;1044498;28;1859;-49
2022/05/05 02:05:22;;;;;;;;;;;;;;;;;;1039931;28;3982;-48
2022/05/05 02:05:53;;;;;;;;;;;;;;;;;;1045711;28;1748;-47
2022/05/05 02:06:23;;;;;;;;;;;;;;;;;;1043714;28;4239;-49
2022/05/05 02:06:53;;;;;;;;;;;;;;;;;;1044422;28;2258;-52
2022/05/05 02:07:23;;;;;;;;;;;;;;;;;;1043586;28;4820;-51
2022/05/05 02:07:54;;;;;;;;;;;;;;;;;;1045313;28;3007;-48
2022/05/05 02:08:24;;;;;;;;;;;;;;;;;;1042473;28;4837;-47
2022/05/05 02:08:57;;;;;;;;;;;;;;;;;;1048964;28;1841;-48
2022/05/05 02:09:27;;;;;;;;;;;;;;;;;;1047994;28;3908;-51
2022/05/05 02:10:10;;;;;;;;;;;;;;;;;;1042125;28;2205;-48
2022/05/05 02:10:47;;;;;;;;;;;;;;;;;;1040797;28;3735;-49
2022/05/05 02:11:18;;;;;;;;;;;;;;;;;;1038793;28;4411;-50
2022/05/05 02:11:48;;;;;;;;;;;;;;;;;;1041068;28;3052;-51
2022/05/05 02:12:18;;;;;;;;;;;;;;;;;;1040554;28;4035;-47
2022/05/05 02:12:51;;;;;;;;;;;;;;;;;;1040460;28;3814;-50
2022/05/05 02:13:21;;;;;;;;;;;;;;;;;;1039226;28;3899;-49
2022/05/05 02:13:51;;;;;;;;;;;;;;;;;;1042174;28;1422;-51
2022/05/05 02:14:23;;;;;;;;;;;;;;;;;;1040608;28;4094;-52
2022/05/05 02:14:53;;;;;;;;;;;;;;;;;;1042190;28;3192;-51
2022/05/05 02:15:24;;;;;;;;;;;;;;;;;;1040823;28;3876;-50
2022/05/05 02:15:54;;;;;;;;;;;;;;;;;;1041172;28;3610;-48
2022/05/05 02:16:24;;;;;;;;;;;;;;;;;;1039717;28;3813;-47
2022/05/05 02:16:54;;;;;;;;;;;;;;;;;;1041681;28;2876;-50
2022/05/05 02:17:25;;;;;;;;;;;;;;;;;;1038563;28;4213;-47
2022/05/05 02:17:55;;;;;;;;;;;;;;;;;;1039597;28;3784;-49
2022/05/05 02:18:27;;;;;;;;;;;;;;;;;;1040740;28;4007;-47
2022/05/05 02:18:57;;;;;;;;;;;;;;;;;;1041251;28;3025;-51
2022/05/05 02:19:27;;;;;;;;;;;;;;;;;;1038571;28;4050;-51
2022/05/05 02:19:58;;;;;;;;;;;;;;;;;;1042055;28;1786;-48
2022/05/05 02:20:30;;;;;;;;;;;;;;;;;;1041426;28;4042;-48
2022/05/05 02:21:00;;;;;;;;;;;;;;;;;;1043244;28;3192;-50
2022/05/05 02:21:30;;;;;;;;;;;;;;;;;;1043998;28;3819;-49
2022/05/05 02:22:02;;;;;;;;;;;;;;;;;;1044296;28;3030;-50
2022/05/05 02:22:32;;;;;;;;;;;;;;;;;;1040750;28;4042;-49
2022/05/05 02:23:03;;;;;;;;;;;;;;;;;;1036659;28;3056;-48
2022/05/05 02:23:33;;;;;;;;;;;;;;;;;;1036907;28;4243;-49
2022/05/05 02:24:03;;;;;;;;;;;;;;;;;;1037611;28;2966;-49
2022/05/05 02:24:34;;;;;;;;;;;;;;;;;;1038991;28;4135;-51
2022/05/05 02:25:04;;;;;;;;;;;;;;;;;;1032246;28;3901;-51
2022/05/05 02:25:35;;;;;;;;;;;;;;;;;;1032947;28;4710;-49
2022/05/05 02:26:05;;;;;;;;;;;;;;;;;;1032510;28;2966;-52
2022/05/05 02:26:36;;;;;;;;;;;;;;;;;;1031930;28;3896;-50
2022/05/05 02:27:08;;;;;;;;;;;;;;;;;;1039741;28;3984;-46
2022/05/05 02:28:04;;;;;;;;;;;;;;;;;;1040641;28;3767;-49
2022/05/05 02:28:34;;;;;;;;;;;;;;;;;;1037876;28;3804;-49
2022/05/05 02:29:04;;;;;;;;;;;;;;;;;;1039403;28;2758;-49
2022/05/05 02:29:35;;;;;;;;;;;;;;;;;;1039893;28;4171;-49
2022/05/05 02:30:05;;;;;;;;;;;;;;;;;;1042300;28;1799;-50
2022/05/05 02:30:36;;;;;;;;;;;;;;;;;;1041800;28;4000;-50
2022/05/05 02:31:06;;;;;;;;;;;;;;;;;;1040559;28;3164;-47
2022/05/05 02:31:37;;;;;;;;;;;;;;;;;;1038169;28;4422;-46
2022/05/05 02:32:07;;;;;;;;;;;;;;;;;;1042291;28;4078;-47
2022/05/05 02:32:38;;;;;;;;;;;;;;;;;;1040009;28;4057;-52
2022/05/05 02:33:09;;;;;;;;;;;;;;;;;;1039348;28;4048;-49
2022/05/05 02:33:39;;;;;;;;;;;;;;;;;;1040056;28;3804;-48
2022/05/05 02:34:09;;;;;;;;;;;;;;;;;;1039223;28;4003;-50
2022/05/05 02:34:39;;;;;;;;;;;;;;;;;;1041847;28;1387;-49
2022/05/05 02:35:10;;;;;;;;;;;;;;;;;;1039914;28;3927;-52
2022/05/05 02:35:40;;;;;;;;;;;;;;;;;;1040420;28;3148;-49
2022/05/05 02:38:44;;;;;;;;;;;;;;;;;;1040556;28;3799;-46
2022/05/05 02:39:14;;;;;;;;;;;;;;;;;;1038909;28;3900;-50
2022/05/05 02:39:44;;;;;;;;;;;;;;;;;;1039699;28;3771;-49
2022/05/05 02:40:14;;;;;;;;;;;;;;;;;;1040317;28;4086;-48
2022/05/05 02:40:45;;;;;;;;;;;;;;;;;;1039824;28;3627;-48
2022/05/05 02:41:15;;;;;;;;;;;;;;;;;;1041228;28;4039;-49
2022/05/05 02:41:46;;;;;;;;;;;;;;;;;;1040415;28;2345;-49
2022/05/05 02:42:17;;;;;;;;;;;;;;;;;;1041783;28;3892;-51
2022/05/05 02:42:47;;;;;;;;;;;;;;;;;;1039449;28;3418;-50
2022/05/05 02:43:17;;;;;;;;;;;;;;;;;;1039578;28;4067;-47
2022/05/05 02:43:47;;;;;;;;;;;;;;;;;;1040859;28;3032;-48
2022/05/05 02:44:18;;;;;;;;;;;;;;;;;;1040497;28;4224;-49
2022/05/05 02:44:48;;;;;;;;;;;;;;;;;;1041923;28;1155;-50
2022/05/05 02:45:18;;;;;;;;;;;;;;;;;;1040874;28;3942;-50
2022/05/05 02:45:49;;;;;;;;;;;;;;;;;;1041205;28;3068;-51
2022/05/05 02:46:19;;;;;;;;;;;;;;;;;;1044007;28;4043;-49
2022/05/05 02:46:49;;;;;;;;;;;;;;;;;;1044132;28;2543;-51
2022/05/05 02:47:20;;;;;;;;;;;;;;;;;;1044342;28;3908;-49
2022/05/05 02:47:50;;;;;;;;;;;;;;;;;;1044198;28;3101;-50
2022/05/05 02:48:21;;;;;;;;;;;;;;;;;;1041433;28;3899;-46
2022/05/05 02:48:51;;;;;;;;;;;;;;;;;;1042244;28;1422;-49
2022/05/05 02:49:21;;;;;;;;;;;;;;;;;;1039591;28;4439;-50
2022/05/05 02:49:51;;;;;;;;;;;;;;;;;;1037986;28;2876;-49
2022/05/05 02:50:22;;;;;;;;;;;;;;;;;;1040183;28;3937;-48
2022/05/05 02:50:52;;;;;;;;;;;;;;;;;;1041005;28;3140;-48
2022/05/05 02:51:22;;;;;;;;;;;;;;;;;;1041625;28;3855;-51
2022/05/05 02:51:53;;;;;;;;;;;;;;;;;;1038515;28;3876;-47
2022/05/05 02:52:23;;;;;;;;;;;;;;;;;;1040968;28;3901;-51
2022/05/05 02:52:54;;;;;;;;;;;;;;;;;;1038515;28;3274;-47
2022/05/05 02:55:09;;;;;;;;;;;;;;;;;;1041151;28;3885;-50
2022/05/05 02:55:39;;;;;;;;;;;;;;;;;;1041041;28;2842;-48
2022/05/05 02:56:09;;;;;;;;;;;;;;;;;;1037488;28;4064;-48
2022/05/05 02:56:39;;;;;;;;;;;;;;;;;;1041499;28;1756;-50
2022/05/05 02:57:10;;;;;;;;;;;;;;;;;;1041837;28;3935;-48
2022/05/05 02:57:40;;;;;;;;;;;;;;;;;;1040699;28;1551;-48
2022/05/05 02:58:10;;;;;;;;;;;;;;;;;;1038912;28;4212;-48
2022/05/05 02:58:40;;;;;;;;;;;;;;;;;;1040793;28;3102;-49
2022/05/05 02:59:11;;;;;;;;;;;;;;;;;;1039322;28;4314;-50
2022/05/05 02:59:42;;;;;;;;;;;;;;;;;;1040851;28;3894;-49
2022/05/05 03:00:12;;;;;;;;;;;;;;;;;;1040288;28;4076;-49
2022/05/05 03:00:42;;;;;;;;;;;;;;;;;;1040851;28;3113;-49
2022/05/05 03:01:13;;;;;;;;;;;;;;;;;;1041147;28;3892;-51
2022/05/05 03:01:43;;;;;;;;;;;;;;;;;;1042025;28;1709;-50
2022/05/05 03:02:13;;;;;;;;;;;;;;;;;;1040155;28;4242;-47
2022/05/05 03:02:44;;;;;;;;;;;;;;;;;;1041096;28;1472;-52
2022/05/05 03:03:14;;;;;;;;;;;;;;;;;;1039901;28;3988;-50
2022/05/05 03:03:44;;;;;;;;;;;;;;;;;;1041242;28;3392;-47
2022/05/05 03:04:15;;;;;;;;;;;;;;;;;;1039341;28;4259;-48
2022/05/05 03:04:45;;;;;;;;;;;;;;;;;;1041407;28;2742;-48
2022/05/05 03:05:15;;;;;;;;;;;;;;;;;;1035942;28;4276;-48
2022/05/05 03:05:46;;;;;;;;;;;;;;;;;;1041472;28;1674;-47
2022/05/05 03:06:16;;;;;;;;;;;;;;;;;;1035808;28;4093;-52
2022/05/05 03:06:46;;;;;;;;;;;;;;;;;;1037933;28;2253;-48
2022/05/05 03:07:16;;;;;;;;;;;;;;;;;;1040662;28;4475;-48
2022/05/05 03:07:48;;;;;;;;;;;;;;;;;;1035287;28;3090;-52
2022/05/05 03:08:19;;;;;;;;;;;;;;;;;;1039917;28;3957;-48
2022/05/05 03:08:49;;;;;;;;;;;;;;;;;;1040872;28;2497;-51
2022/05/05 03:09:19;;;;;;;;;;;;;;;;;;1040658;28;4226;-48
2022/05/05 03:10:03;;;;;;;;;;;;;;;;;;1042858;28;3692;-47
2022/05/05 03:10:40;;;;;;;;;;;;;;;;;;1049787;28;3927;-49
2022/05/05 03:11:11;;;;;;;;;;;;;;;;;;1047643;28;4534;-48
2022/05/05 03:11:41;;;;;;;;;;;;;;;;;;1049915;28;1868;-50
2022/05/05 03:12:11;;;;;;;;;;;;;;;;;;1047833;28;3850;-50
2022/05/05 03:12:41;;;;;;;;;;;;;;;;;;1050183;28;1567;-49
2022/05/05 03:13:11;;;;;;;;;;;;;;;;;;1048260;28;4294;-51
2022/05/05 03:13:42;;;;;;;;;;;;;;;;;;1048823;28;3531;-49
2022/05/05 03:14:12;;;;;;;;;;;;;;;;;;1049031;28;3835;-49
2022/05/05 03:14:44;;;;;;;;;;;;;;;;;;1050245;28;1627;-49
2022/05/05 03:15:14;;;;;;;;;;;;;;;;;;1046470;28;4471;-51
2022/05/05 03:15:44;;;;;;;;;;;;;;;;;;1050064;28;1685;-48
2022/05/05 03:16:14;;;;;;;;;;;;;;;;;;1049484;28;3899;-47
2022/05/05 03:16:45;;;;;;;;;;;;;;;;;;1048447;28;3003;-49
2022/05/05 03:17:15;;;;;;;;;;;;;;;;;;1049633;28;4171;-49
2022/05/05 03:17:46;;;;;;;;;;;;;;;;;;1048875;28;2799;-48
2022/05/05 03:18:16;;;;;;;;;;;;;;;;;;1048168;28;3858;-48
2022/05/05 03:18:47;;;;;;;;;;;;;;;;;;1047259;28;3764;-48
2022/05/05 03:19:17;;;;;;;;;;;;;;;;;;1048845;28;4551;-52
2022/05/05 03:19:47;;;;;;;;;;;;;;;;;;1047289;28;4254;-49
2022/05/05 03:20:18;;;;;;;;;;;;;;;;;;1049171;28;3945;-48
2022/05/05 03:20:49;;;;;;;;;;;;;;;;;;1044373;28;2826;-49
2022/05/05 03:21:19;;;;;;;;;;;;;;;;;;1044444;28;3838;-50
2022/05/05 03:21:49;;;;;;;;;;;;;;;;;;1040376;28;2559;-49
2022/05/05 03:22:20;;;;;;;;;;;;;;;;;;1040439;28;4035;-51
2022/05/05 03:22:50;;;;;;;;;;;;;;;;;;1040193;28;3181;-50
2022/05/05 03:23:20;;;;;;;;;;;;;;;;;;1038939;28;4204;-47
2022/05/05 03:23:50;;;;;;;;;;;;;;;;;;1043093;28;3070;-48
2022/05/05 03:24:21;;;;;;;;;;;;;;;;;;1043637;28;3904;-53
2022/05/05 03:24:51;;;;;;;;;;;;;;;;;;1048533;28;3691;-49
2022/05/05 03:25:21;;;;;;;;;;;;;;;;;;1049236;28;4124;-49
2022/05/05 03:25:51;;;;;;;;;;;;;;;;;;1047252;28;3105;-48
2022/05/05 03:26:22;;;;;;;;;;;;;;;;;;1048830;28;4289;-49
2022/05/05 03:26:52;;;;;;;;;;;;;;;;;;1049081;28;3260;-49
2022/05/05 03:27:23;;;;;;;;;;;;;;;;;;1042817;28;3850;-47
2022/05/05 03:27:53;;;;;;;;;;;;;;;;;;1042187;28;3910;-50
2022/05/05 03:28:23;;;;;;;;;;;;;;;;;;1043852;28;3964;-48
2022/05/05 03:28:55;;;;;;;;;;;;;;;;;;1040057;28;3795;-48
2022/05/05 03:29:26;;;;;;;;;;;;;;;;;;1044811;28;3787;-51
2022/05/05 03:29:56;;;;;;;;;;;;;;;;;;1040562;28;3093;-47
2022/05/05 03:30:26;;;;;;;;;;;;;;;;;;1039683;28;3890;-47
2022/05/05 03:30:57;;;;;;;;;;;;;;;;;;1043258;28;3500;-50
2022/05/05 03:31:27;;;;;;;;;;;;;;;;;;1040115;28;3821;-50
2022/05/05 03:31:57;;;;;;;;;;;;;;;;;;1044062;28;3369;-48
2022/05/05 03:32:28;;;;;;;;;;;;;;;;;;1043962;28;3841;-48
2022/05/05 03:32:58;;;;;;;;;;;;;;;;;;1045278;28;3820;-51
2022/05/05 03:33:29;;;;;;;;;;;;;;;;;;1047596;28;4088;-49
2022/05/05 03:33:59;;;;;;;;;;;;;;;;;;1048018;28;3650;-49
2022/05/05 03:34:29;;;;;;;;;;;;;;;;;;1044495;28;3936;-50
2022/05/05 03:35:07;;;;;;;;;;;;;;;;;;1049087;28;3716;-50
2022/05/05 03:35:37;;;;;;;;;;;;;;;;;;1043895;28;4106;-48
2022/05/05 03:36:09;;;;;;;;;;;;;;;;;;1043405;28;4460;-50
2022/05/05 03:36:39;;;;;;;;;;;;;;;;;;1043741;28;3989;-46
2022/05/05 03:37:09;;;;;;;;;;;;;;;;;;1042237;28;3817;-51
2022/05/05 03:37:40;;;;;;;;;;;;;;;;;;1048008;28;2896;-49
2022/05/05 03:38:10;;;;;;;;;;;;;;;;;;1047783;28;4445;-50
2022/05/05 03:38:40;;;;;;;;;;;;;;;;;;1043890;28;3323;-49
2022/05/05 03:39:11;;;;;;;;;;;;;;;;;;1042218;28;4101;-48
2022/05/05 03:39:41;;;;;;;;;;;;;;;;;;1045448;28;2948;-50
2022/05/05 03:40:11;;;;;;;;;;;;;;;;;;1045260;28;4435;-51
2022/05/05 03:40:42;;;;;;;;;;;;;;;;;;1049763;28;2194;-47
2022/05/05 03:41:12;;;;;;;;;;;;;;;;;;1048961;28;3991;-51
2022/05/05 03:41:42;;;;;;;;;;;;;;;;;;1048902;28;1485;-53
2022/05/05 03:42:13;;;;;;;;;;;;;;;;;;1048606;28;3899;-46
2022/05/05 03:42:43;;;;;;;;;;;;;;;;;;1046709;28;4030;-51
2022/05/05 03:43:14;;;;;;;;;;;;;;;;;;1038518;28;4127;-51
2022/05/05 03:43:44;;;;;;;;;;;;;;;;;;1040630;28;1944;-50
2022/05/05 03:44:14;;;;;;;;;;;;;;;;;;1038458;28;4524;-49
2022/05/05 03:44:45;;;;;;;;;;;;;;;;;;1038835;28;3870;-49
2022/05/05 03:45:15;;;;;;;;;;;;;;;;;;1048221;28;3905;-51
2022/05/05 03:45:45;;;;;;;;;;;;;;;;;;1045933;28;2715;-49
2022/05/05 03:46:15;;;;;;;;;;;;;;;;;;1043718;28;4234;-50
2022/05/05 03:46:46;;;;;;;;;;;;;;;;;;1044883;28;2702;-48
2022/05/05 03:47:16;;;;;;;;;;;;;;;;;;1042586;28;5403;-47